Time;durP1;ratioP1;P1;durP2;ratioP2;P2;SDS_P1;SDS_P2;PMS_P1;PMS_P2;Temp;Humidity;BMP_temperature;BMP_pressure;BME280_temperature;BME280_humidity;BME280_pressure;Samples;Min_cycle;Max_cycle;Signal;HPM_P1;HPM_P2
2022/07/26 00:01:36;;;;;;;10.50;7.15;;;;;;;24.51;43.55;99264.69;4885097;28;101419;-88
2022/07/26 00:04:04;;;;;;;9.65;7.43;;;;;;;24.71;43.65;99300.06;4884582;28;96735;-90
2022/07/26 00:06:29;;;;;;;13.90;7.20;;;;;;;24.69;43.27;99294.84;4881354;28;97314;-88
2022/07/26 00:08:55;;;;;;;9.77;7.40;;;;;;;24.65;43.64;99295.38;4890217;28;100959;-87
2022/07/26 00:11:21;;;;;;;9.13;6.80;;;;;;;24.65;43.90;99293.53;4883943;28;99799;-90
2022/07/26 00:13:50;;;;;;;8.02;7.22;;;;;;;24.79;43.71;99300.06;4900574;28;96838;-88
2022/07/26 00:16:15;;;;;;;13.82;7.78;;;;;;;24.84;43.68;99303.91;4883890;28;97245;-89
2022/07/26 00:18:41;;;;;;;9.73;7.88;;;;;;;24.78;43.70;99282.28;4883246;28;101257;-88
2022/07/26 00:21:07;;;;;;;10.30;7.82;;;;;;;24.80;43.92;99288.31;4904681;28;101433;-89
2022/07/26 00:23:32;;;;;;;9.65;7.85;;;;;;;24.36;44.36;99235.81;4898319;28;96692;-89
2022/07/26 00:25:58;;;;;;;8.02;7.32;;;;;;;24.47;44.23;99252.63;4900285;28;96915;-89
2022/07/26 00:28:24;;;;;;;14.07;7.32;;;;;;;24.61;44.06;99268.03;4885470;28;100371;-89
2022/07/26 00:30:49;;;;;;;8.52;7.60;;;;;;;24.73;44.14;99271.22;4903274;28;101167;-88
2022/07/26 00:33:15;;;;;;;8.27;7.47;;;;;;;24.50;43.97;99210.19;4888946;28;97342;-89
2022/07/26 00:35:40;;;;;;;9.15;7.38;;;;;;;24.61;44.18;99239.38;4880595;28;96697;-88
2022/07/26 00:38:06;;;;;;;15.55;8.15;;;;;;;24.63;44.42;99258.78;4880377;28;101055;-89
2022/07/26 00:40:32;;;;;;;16.73;7.97;;;;;;;24.54;45.00;99264.34;4887705;28;101306;-88
2022/07/26 00:42:58;;;;;;;9.80;7.57;;;;;;;24.46;44.78;99262.47;4894120;28;97118;-88
2022/07/26 00:45:24;;;;;;;9.77;7.40;;;;;;;24.54;44.75;99257.13;4883892;28;97279;-88
2022/07/26 00:47:49;;;;;;;9.63;8.07;;;;;;;24.35;44.99;99242.19;4884116;28;100299;-89
2022/07/26 00:50:16;;;;;;;7.55;7.03;;;;;;;24.63;44.58;99264.16;4879119;28;100079;-88
2022/07/26 00:52:43;;;;;;;16.65;8.32;;;;;;;24.66;44.58;99259.47;4883265;28;96800;-89
2022/07/26 00:55:09;;;;;;;10.50;7.95;;;;;;;24.45;44.88;99244.72;4884043;28;97307;-88
2022/07/26 00:57:35;;;;;;;8.80;7.90;;;;;;;24.50;45.00;99268.38;4880509;28;101050;-89
2022/07/26 01:00:07;;;;;;;8.00;7.30;;;;;;;24.64;44.77;99270.38;4890434;28;100158;-89
2022/07/26 01:02:32;;;;;;;10.10;7.78;;;;;;;24.52;44.87;99264.53;4896585;28;96775;-88
2022/07/26 01:04:58;;;;;;;11.95;7.53;;;;;;;24.54;44.85;99275.06;4898425;28;98018;-89
2022/07/26 01:07:23;;;;;;;7.82;7.10;;;;;;;24.59;45.00;99267.38;4894686;28;96959;-89
2022/07/26 01:09:49;;;;;;;8.10;7.22;;;;;;;24.54;44.99;99259.81;4880399;28;100898;-89
2022/07/26 01:12:14;;;;;;;8.52;7.82;;;;;;;24.77;44.55;99280.59;4900014;28;97805;-88
2022/07/26 01:14:44;;;;;;;8.48;6.75;;;;;;;24.81;44.55;99264.00;4913256;28;97189;-88
2022/07/26 01:17:11;;;;;;;15.43;7.82;;;;;;;24.59;44.99;99249.41;4882784;28;101339;-89
2022/07/26 01:19:36;;;;;;;9.00;7.25;;;;;;;24.75;44.82;99267.34;4883316;28;100204;-89
2022/07/26 01:22:02;;;;;;;9.75;7.47;;;;;;;24.85;44.69;99272.56;4883684;28;96970;-88
2022/07/26 01:24:30;;;;;;;8.55;7.85;;;;;;;24.79;44.50;99265.19;4882751;28;97248;-88
2022/07/26 01:26:56;;;;;;;8.73;7.93;;;;;;;24.48;44.99;99230.16;4883400;28;101365;-88
2022/07/26 01:29:24;;;;;;;10.45;8.00;;;;;;;24.90;44.72;99280.94;4883510;28;101750;-88
2022/07/26 01:31:49;;;;;;;10.60;8.18;;;;;;;24.81;44.56;99233.63;4881740;28;96871;-88
2022/07/26 01:34:16;;;;;;;8.57;7.78;;;;;;;25.02;44.40;99281.44;4879281;28;96892;-89
2022/07/26 01:36:41;;;;;;;9.00;8.05;;;;;;;24.62;44.70;99224.94;4906582;28;99735;-89
2022/07/26 01:39:07;;;;;;;9.93;8.02;;;;;;;24.56;44.96;99235.50;4895964;28;101372;-90
2022/07/26 01:41:33;;;;;;;8.43;7.65;;;;;;;24.78;44.67;99250.06;4883518;28;97231;-89
2022/07/26 01:43:58;;;;;;;10.57;7.80;;;;;;;24.76;44.89;99266.34;4883214;28;96991;-88
2022/07/26 01:46:24;;;;;;;11.48;7.30;;;;;;;25.00;44.73;99291.50;4882563;28;101793;-88
2022/07/26 01:48:50;;;;;;;9.98;7.75;;;;;;;24.93;44.77;99280.59;4882890;28;101323;-88
2022/07/26 01:51:16;;;;;;;8.80;7.63;;;;;;;24.90;44.82;99254.09;4898424;28;97317;-89
2022/07/26 01:53:44;;;;;;;8.70;7.95;;;;;;;24.58;45.21;99250.44;4894738;28;97025;-88
2022/07/26 01:56:11;;;;;;;12.68;7.88;;;;;;;24.20;45.50;99229.59;4908267;28;97847;-90
2022/07/26 01:58:37;;;;;;;9.57;7.97;;;;;;;24.48;45.69;99300.72;4882950;28;101341;-88
2022/07/26 02:01:02;;;;;;;8.57;7.85;;;;;;;24.34;45.79;99259.25;4882282;28;97005;-89
2022/07/26 02:03:30;;;;;;;9.40;8.45;;;;;;;24.56;45.67;99298.03;4882592;28;97076;-89
2022/07/26 02:05:56;;;;;;;12.18;7.85;;;;;;;24.62;45.45;99283.13;4903002;28;98376;-88
2022/07/26 02:08:21;;;;;;;16.77;8.23;;;;;;;24.67;45.38;99279.91;4883037;28;100163;-88
2022/07/26 02:10:59;;;;;;;12.20;9.00;;;;;;;24.75;45.02;99304.91;4880503;28;97093;-88
2022/07/26 02:13:34;;;;;;;8.23;7.53;;;;;;;24.99;44.95;99311.28;4900378;28;97005;-89
2022/07/26 02:16:01;;;;;;;9.63;8.75;;;;;;;25.00;44.98;99296.84;4884636;28;100359;-89
2022/07/26 02:18:28;;;;;;;8.45;7.75;;;;;;;25.08;45.27;99332.59;4891097;28;101504;-89
2022/07/26 02:20:54;;;;;;;8.77;8.07;;;;;;;25.07;46.10;99352.41;4886241;28;96708;-89
2022/07/26 02:23:20;;;;;;;9.32;8.40;;;;;;;25.01;46.59;99366.47;4879478;28;96894;-89
2022/07/26 02:25:46;;;;;;;9.25;7.88;;;;;;;24.97;46.99;99332.94;4889133;28;100318;-90
2022/07/26 02:28:13;;;;;;;8.93;8.02;;;;;;;24.93;47.63;99345.00;4897506;28;101394;-90
2022/07/26 02:30:38;;;;;;;21.08;10.38;;;;;;;24.97;50.44;99356.25;4882656;28;96945;-88
2022/07/26 02:33:04;;;;;;;20.08;10.07;;;;;;;24.72;52.82;99334.75;4882338;28;96932;-90
2022/07/26 02:35:30;;;;;;;12.98;9.75;;;;;;;24.39;53.83;99299.81;4898190;28;100324;-90
2022/07/26 02:38:08;;;;;;;17.48;10.07;;;;;;;24.53;54.71;99369.97;4883386;28;100994;-90
2022/07/26 02:40:33;;;;;;;13.40;10.13;;;;;;;24.28;55.27;99383.25;4882549;28;96660;-90
2022/07/26 02:42:59;;;;;;;14.00;10.60;;;;;;;24.02;56.65;99398.59;4882556;28;96953;-90
2022/07/26 02:45:26;;;;;;;15.43;10.10;;;;;;;23.62;56.83;99419.63;4881276;28;100322;-90
2022/07/26 02:47:53;;;;;;;12.73;11.35;;;;;;;23.56;57.91;99425.63;4895412;28;98028;-90
2022/07/26 02:50:20;;;;;;;19.73;12.02;;;;;;;23.59;58.24;99427.13;4897097;28;96883;-89
2022/07/26 02:52:47;;;;;;;14.65;11.30;;;;;;;23.63;57.88;99413.25;4882728;28;96825;-90
2022/07/26 02:55:16;;;;;;;21.75;12.43;;;;;;;23.73;57.99;99435.44;4898038;28;100290;-89
2022/07/26 02:57:42;;;;;;;15.55;11.70;;;;;;;23.74;57.95;99428.28;4908094;28;101251;-90
2022/07/26 03:00:10;;;;;;;12.82;11.40;;;;;;;23.76;58.34;99446.84;4884507;28;97381;-90
2022/07/26 03:02:35;;;;;;;13.55;11.32;;;;;;;23.64;58.60;99430.16;4884079;28;97290;-89
2022/07/26 03:05:02;;;;;;;11.80;10.63;;;;;;;23.65;58.51;99438.06;4885228;28;97800;-90
2022/07/26 03:07:28;;;;;;;13.40;11.25;;;;;;;23.46;58.77;99400.75;4897492;28;99330;-90
2022/07/26 03:09:53;;;;;;;15.10;12.00;;;;;;;23.52;59.25;99440.31;4882052;28;97027;-89
2022/07/26 03:12:19;;;;;;;17.30;13.45;;;;;;;23.62;58.94;99441.06;4898702;28;96999;-90
2022/07/26 03:14:44;;;;;;;13.73;12.43;;;;;;;23.40;59.64;99417.47;4905162;28;98144;-89
2022/07/26 03:17:10;;;;;;;14.48;11.60;;;;;;;23.55;59.11;99436.47;4877356;28;99827;-90
2022/07/26 03:19:35;;;;;;;15.75;11.70;;;;;;;23.49;59.38;99444.13;4877911;28;97328;-89
2022/07/26 03:22:01;;;;;;;13.52;11.95;;;;;;;23.55;59.81;99458.72;4885432;28;97258;-90
2022/07/26 03:24:26;;;;;;;13.23;11.98;;;;;;;23.50;nan;99469.06;4900634;28;100857;-89
2022/07/26 03:26:54;;;;;;;13.82;12.57;;;;;;;23.52;60.43;99476.97;4882654;28;101005;-90
2022/07/26 03:29:19;;;;;;;15.38;12.65;;;;;;;23.17;60.50;99428.66;4898915;28;97025;-89
2022/07/26 03:31:48;;;;;;;15.68;13.93;;;;;;;23.40;60.93;99457.63;4902635;28;96751;-90
2022/07/26 03:34:16;;;;;;;15.20;13.73;;;;;;;23.25;61.15;99446.63;4899258;28;100871;-90
2022/07/26 03:36:42;;;;;;;18.55;15.13;;;;;;;23.39;61.30;99470.19;4908589;28;100933;-90
2022/07/26 03:39:08;;;;;;;15.38;13.82;;;;;;;23.21;61.64;99454.13;4891145;28;96614;-91
2022/07/26 03:41:37;;;;;;;15.50;14.32;;;;;;;23.27;61.92;99466.91;4890904;28;97200;-89
2022/07/26 03:44:03;;;;;;;16.25;14.75;;;;;;;23.31;62.38;99491.53;4892370;28;100763;-89
2022/07/26 03:46:31;;;;;;;16.13;14.60;;;;;;;23.27;62.23;99490.13;4888090;28;101342;-89
2022/07/26 03:48:57;;;;;;;15.45;14.23;;;;;;;23.39;62.64;99507.66;4920639;28;96817;-89
2022/07/26 03:51:22;;;;;;;15.35;14.23;;;;;;;23.39;62.43;99512.19;4887409;28;99022;-90
2022/07/26 03:53:48;;;;;;;15.93;14.63;;;;;;;23.60;62.05;99531.44;4884729;28;101205;-88
2022/07/26 03:56:32;;;;;;;16.90;15.60;;;;;;;23.45;62.65;99509.72;4900130;28;99913;-89
2022/07/26 03:59:00;;;;;;;16.55;14.93;;;;;;;23.67;62.28;99540.53;4887026;28;96837;-89
2022/07/26 04:01:26;;;;;;;16.75;15.27;;;;;;;23.64;62.62;99527.44;4884758;28;97258;-89
2022/07/26 04:03:52;;;;;;;16.17;14.68;;;;;;;23.73;62.45;99531.06;4884988;28;101067;-89
2022/07/26 04:06:17;;;;;;;19.10;17.35;;;;;;;23.70;63.01;99534.03;4897467;28;100027;-90
2022/07/26 04:08:43;;;;;;;17.27;15.77;;;;;;;23.66;62.99;99522.78;4895678;28;97024;-90
2022/07/26 04:11:08;;;;;;;17.08;15.48;;;;;;;23.67;63.79;99542.38;4900613;28;96933;-92
2022/07/26 04:13:35;;;;;;;16.27;15.07;;;;;;;23.74;63.28;99543.47;4884204;28;100791;-90
2022/07/26 04:16:01;;;;;;;17.90;15.98;;;;;;;23.76;63.43;99557.53;4898095;28;98398;-90
2022/07/26 04:18:26;;;;;;;18.02;16.30;;;;;;;23.81;62.90;99559.75;4894365;28;97176;-90
2022/07/26 04:20:52;;;;;;;17.38;15.98;;;;;;;23.71;62.26;99517.84;4900708;28;97005;-89
2022/07/26 04:23:17;;;;;;;17.13;15.75;;;;;;;23.93;62.46;99553.16;4912190;28;101760;-90
2022/07/26 04:25:43;;;;;;;17.95;16.25;;;;;;;23.73;63.31;99552.50;4891203;28;100693;-90
2022/07/26 04:28:10;;;;;;;17.60;16.05;;;;;;;23.89;62.72;99551.78;4903849;28;97041;-90
2022/07/26 04:30:36;;;;;;;16.55;15.25;;;;;;;23.62;62.77;99525.91;4921786;28;96868;-90
2022/07/26 04:33:01;;;;;;;17.00;15.32;;;;;;;23.57;63.52;99531.75;4891703;28;101539;-90
2022/07/26 04:35:27;;;;;;;16.65;15.35;;;;;;;23.64;62.70;99540.84;4912630;28;100909;-89
2022/07/26 04:37:53;;;;;;;17.20;15.68;;;;;;;23.82;62.22;99553.38;4904786;28;97150;-88
2022/07/26 04:40:19;;;;;;;16.55;15.15;;;;;;;23.66;62.91;99536.16;4923849;28;96936;-89
2022/07/26 04:42:45;;;;;;;16.80;15.60;;;;;;;23.68;62.72;99550.25;4913184;28;98674;-90
2022/07/26 04:45:14;;;;;;;16.42;15.13;;;;;;;23.75;62.56;99563.06;4883640;28;101586;-92
2022/07/26 04:47:43;;;;;;;17.50;16.00;;;;;;;23.72;63.06;99573.09;4884103;28;96647;-89
2022/07/26 04:50:11;;;;;;;15.50;14.32;;;;;;;23.84;62.39;99580.88;4897687;28;96837;-89
2022/07/26 04:52:37;;;;;;;16.13;14.93;;;;;;;23.62;62.60;99564.28;4894012;28;101197;-90
2022/07/26 04:55:06;;;;;;;15.52;14.15;;;;;;;24.05;61.98;99605.50;4888381;28;101204;-89
2022/07/26 04:57:42;;;;;;;16.05;14.80;;;;;;;23.78;62.19;99570.78;4897973;28;97266;-90
2022/07/26 05:00:10;;;;;;;14.77;13.70;;;;;;;23.99;61.45;99592.72;4900168;28;96651;-90
2022/07/26 05:02:38;;;;;;;14.57;13.25;;;;;;;24.16;60.35;99621.34;4867554;28;101589;-89
2022/07/26 05:05:05;;;;;;;13.73;12.60;;;;;;;24.28;58.70;99610.34;4896945;28;98433;-90
2022/07/26 05:07:41;;;;;;;13.13;12.02;;;;;;;24.08;58.68;99586.41;4879274;28;98266;-89
2022/07/26 05:10:08;;;;;;;12.68;11.65;;;;;;;24.42;58.34;99636.59;4896836;28;96983;-90
2022/07/26 05:12:38;;;;;;;13.07;11.95;;;;;;;24.53;57.64;99632.84;4883382;28;100147;-90
2022/07/26 05:15:10;;;;;;;12.43;11.52;;;;;;;24.52;56.87;99612.38;4880307;28;101427;-89
2022/07/26 05:17:40;;;;;;;13.50;12.20;;;;;;;24.51;57.49;99587.38;4894899;28;96754;-89
2022/07/26 05:20:06;;;;;;;13.10;12.10;;;;;;;24.68;58.01;99619.69;4872207;28;96888;-89
2022/07/26 05:22:33;;;;;;;12.95;11.70;;;;;;;24.71;57.52;99614.81;4906894;28;98636;-89
2022/07/26 05:24:59;;;;;;;12.65;11.45;;;;;;;24.66;57.02;99593.00;4874052;28;101066;-90
2022/07/26 05:27:24;;;;;;;13.15;11.75;;;;;;;24.92;56.71;99635.88;4883524;28;97301;-89
2022/07/26 05:29:50;;;;;;;12.75;11.77;;;;;;;24.73;56.34;99609.31;4881002;28;97432;-90
2022/07/26 05:32:16;;;;;;;13.40;12.20;;;;;;;25.01;56.31;99648.34;4883004;28;101552;-92
2022/07/26 05:34:41;;;;;;;13.27;12.20;;;;;;;24.63;56.69;99615.63;4898266;28;100025;-89
2022/07/26 05:37:07;;;;;;;14.02;12.23;;;;;;;24.47;57.38;99612.88;4882828;28;97246;-89
2022/07/26 05:39:33;;;;;;;12.65;11.50;;;;;;;24.65;56.39;99626.22;4897307;28;96965;-89
2022/07/26 05:41:59;;;;;;;12.55;11.55;;;;;;;24.51;55.99;99616.06;4902112;28;97967;-89
2022/07/26 05:44:27;;;;;;;12.13;11.32;;;;;;;24.61;56.43;99636.41;4876701;28;101451;-89
2022/07/26 05:46:53;;;;;;;11.63;10.82;;;;;;;24.42;56.18;99623.19;4883421;28;97278;-89
2022/07/26 05:49:18;;;;;;;11.88;10.65;;;;;;;24.33;56.13;99627.66;4882916;28;96878;-88
2022/07/26 05:51:44;;;;;;;12.45;11.40;;;;;;;24.60;56.41;99668.75;4913395;28;101293;-90
2022/07/26 05:54:12;;;;;;;12.30;11.30;;;;;;;24.29;56.69;99630.78;4879580;28;100966;-89
2022/07/26 05:56:37;;;;;;;13.48;11.65;;;;;;;24.31;56.45;99650.25;4914700;28;96837;-89
2022/07/26 05:59:03;;;;;;;12.20;11.30;;;;;;;24.32;57.01;99666.22;4883506;28;97159;-89
2022/07/26 06:01:31;;;;;;;12.77;11.68;;;;;;;24.46;57.01;99699.69;4897408;28;99802;-89
2022/07/26 06:03:59;;;;;;;11.98;11.07;;;;;;;24.37;57.40;99712.16;4883009;28;99903;-89
2022/07/26 06:06:25;;;;;;;12.50;11.40;;;;;;;24.43;57.21;99716.09;4904956;28;97212;-90
2022/07/26 06:08:50;;;;;;;12.43;11.18;;;;;;;24.28;57.60;99709.56;4911860;28;97124;-89
2022/07/26 06:11:16;;;;;;;11.95;10.95;;;;;;;24.45;57.45;99724.81;4898515;28;101005;-93
2022/07/26 06:13:42;;;;;;;11.93;10.73;;;;;;;24.38;57.29;99726.44;4883105;28;100097;-89
2022/07/26 06:16:07;;;;;;;12.63;11.50;;;;;;;24.26;57.35;99722.28;4883084;28;97169;-89
2022/07/26 06:18:33;;;;;;;11.88;11.02;;;;;;;24.40;56.60;99729.78;4883439;28;96916;-90
2022/07/26 06:20:59;;;;;;;12.50;11.57;;;;;;;24.31;56.89;99728.03;4882536;28;101239;-89
2022/07/26 06:23:27;;;;;;;11.63;10.75;;;;;;;24.04;56.97;99681.56;4881984;28;100776;-89
2022/07/26 06:25:53;;;;;;;12.07;11.00;;;;;;;24.21;57.23;99728.13;4882316;28;96731;-89
2022/07/26 06:28:18;;;;;;;12.57;10.45;;;;;;;23.99;57.15;99685.69;4895435;28;96982;-90
2022/07/26 06:30:44;;;;;;;11.15;10.13;;;;;;;24.25;57.19;99739.38;4893616;28;97962;-89
2022/07/26 06:33:10;;;;;;;11.05;10.23;;;;;;;24.06;56.95;99708.22;4882328;28;101008;-89
2022/07/26 06:35:37;;;;;;;13.18;10.88;;;;;;;23.85;57.06;99695.09;4905184;28;96780;-89
2022/07/26 06:38:04;;;;;;;13.57;10.88;;;;;;;23.96;57.18;99719.00;4878790;28;97575;-89
2022/07/26 06:40:32;;;;;;;11.57;10.63;;;;;;;24.10;56.11;99731.88;4897067;28;101141;-89
2022/07/26 06:43:01;;;;;;;11.55;10.48;;;;;;;23.97;56.67;99717.16;4916313;28;97913;-89
2022/07/26 06:45:27;;;;;;;11.50;10.32;;;;;;;24.19;56.15;99746.19;4880718;28;96713;-88
2022/07/26 06:47:55;;;;;;;20.20;10.45;;;;;;;24.38;55.73;99753.25;4905556;28;96908;-88
2022/07/26 06:50:26;;;;;;;12.25;10.25;;;;;;;24.33;55.44;99744.81;4905647;28;100524;-90
2022/07/26 06:52:57;;;;;;;10.88;10.02;;;;;;;24.32;55.16;99745.81;4908463;28;101751;-89
2022/07/26 06:55:23;;;;;;;12.00;10.32;;;;;;;24.07;54.59;99705.38;4877155;28;97303;-91
2022/07/26 06:57:55;;;;;;;15.32;10.45;;;;;;;24.43;54.31;99745.59;4881767;28;97464;-89
2022/07/26 07:00:21;;;;;;;11.23;10.27;;;;;;;24.48;53.60;99754.03;4887519;28;100358;-89
2022/07/26 07:02:47;;;;;;;13.82;10.77;;;;;;;24.29;53.85;99730.88;4889300;28;101114;-90
2022/07/26 07:05:13;;;;;;;12.90;10.20;;;;;;;24.43;53.93;99756.31;4904423;28;97952;-89
2022/07/26 07:07:42;;;;;;;11.23;10.20;;;;;;;24.45;54.24;99740.09;4906498;28;97284;-89
2022/07/26 07:10:11;;;;;;;11.32;10.23;;;;;;;24.51;54.07;99759.06;4908035;28;99885;-89
2022/07/26 07:12:36;;;;;;;13.50;10.50;;;;;;;24.67;53.70;99785.22;4910576;28;101090;-88
2022/07/26 07:15:05;;;;;;;11.80;10.15;;;;;;;24.65;53.36;99789.88;4889835;28;96775;-89
2022/07/26 07:17:31;;;;;;;12.82;10.60;;;;;;;24.57;53.48;99771.03;4882842;28;96941;-88
2022/07/26 07:19:56;;;;;;;11.38;10.35;;;;;;;24.68;53.06;99776.16;4892078;28;100464;-88
2022/07/26 07:22:22;;;;;;;11.77;10.32;;;;;;;24.84;52.30;99791.50;4901517;28;100346;-90
2022/07/26 07:24:50;;;;;;;11.00;10.05;;;;;;;24.95;52.01;99788.56;4903634;28;96672;-90
2022/07/26 07:27:16;;;;;;;10.93;10.10;;;;;;;25.07;51.27;99790.03;4884117;28;96840;-89
2022/07/26 07:29:47;;;;;;;10.70;9.70;;;;;;;25.39;50.30;99785.00;4891635;28;101018;-89
2022/07/26 07:32:15;;;;;;;11.15;9.68;;;;;;;25.69;50.22;99811.34;4911162;28;101702;-89
2022/07/26 07:34:42;;;;;;;11.43;10.32;;;;;;;25.75;49.99;99801.78;4908732;28;96847;-88
2022/07/26 07:37:08;;;;;;;11.18;10.38;;;;;;;25.48;50.21;99766.09;4905187;28;96892;-87
2022/07/26 07:39:35;;;;;;;10.32;9.50;;;;;;;25.47;49.77;99763.53;4880889;28;100921;-87
2022/07/26 07:42:01;;;;;;;10.35;9.57;;;;;;;25.82;49.09;99818.97;4889352;28;99865;-88
2022/07/26 07:44:27;;;;;;;10.65;9.60;;;;;;;25.64;49.29;99789.47;4902593;28;96827;-89
2022/07/26 07:46:54;;;;;;;10.73;9.65;;;;;;;25.82;48.86;99818.97;4896197;28;96951;-90
2022/07/26 07:49:21;;;;;;;9.82;9.13;;;;;;;25.88;48.43;99801.34;4909462;28;101332;-88
2022/07/26 07:51:46;;;;;;;10.88;9.77;;;;;;;25.84;48.76;99782.03;4910992;28;101180;-89
2022/07/26 07:54:14;;;;;;;10.00;9.30;;;;;;;25.91;48.09;99809.91;4901787;28;96837;-90
2022/07/26 07:56:43;;;;;;;12.95;9.73;;;;;;;25.87;48.40;99800.50;4898716;28;97070;-89
2022/07/26 07:59:08;;;;;;;9.98;9.18;;;;;;;25.85;47.89;99791.75;4897135;28;101152;-88
2022/07/26 08:01:34;;;;;;;9.48;8.65;;;;;;;25.90;48.29;99813.63;4895132;28;98443;-88
2022/07/26 08:03:59;;;;;;;9.23;8.52;;;;;;;26.01;48.21;99825.09;4883719;28;96709;-89
2022/07/26 08:06:25;;;;;;;9.45;8.57;;;;;;;25.94;48.23;99806.06;4880319;28;98137;-88
2022/07/26 08:08:51;;;;;;;9.35;8.45;;;;;;;26.03;48.00;99806.94;4900147;28;100756;-87
2022/07/26 08:11:17;;;;;;;10.02;8.75;;;;;;;25.96;47.81;99782.56;4884425;28;100408;-88
2022/07/26 08:13:42;;;;;;;10.45;9.07;;;;;;;26.28;47.77;99819.44;4897519;28;96808;-88
2022/07/26 08:16:10;;;;;;;11.10;9.52;;;;;;;25.95;48.04;99778.19;4882355;28;96894;-87
2022/07/26 08:18:40;;;;;;;14.43;9.82;;;;;;;25.91;48.13;99795.66;4891220;28;98626;-88
2022/07/26 08:21:06;;;;;;;9.10;8.43;;;;;;;25.75;47.92;99786.50;4896238;28;101625;-88
2022/07/26 08:23:32;;;;;;;10.07;9.07;;;;;;;25.82;48.33;99775.97;4873770;28;97235;-89
2022/07/26 08:25:57;;;;;;;9.23;8.38;;;;;;;25.97;47.70;99794.97;4907534;28;98447;-88
2022/07/26 08:28:27;;;;;;;9.82;9.02;;;;;;;26.23;47.73;99820.94;4887815;28;100078;-88
2022/07/26 08:30:52;;;;;;;8.98;8.18;;;;;;;26.21;47.43;99821.13;4900633;28;98142;-86
2022/07/26 08:33:18;;;;;;;9.73;8.82;;;;;;;26.31;47.22;99805.66;4884161;28;96683;-86
2022/07/26 08:35:46;;;;;;;10.20;9.18;;;;;;;26.08;46.61;99800.06;4899032;28;96964;-87
2022/07/26 08:38:11;;;;;;;12.00;10.98;;;;;;;25.52;47.71;99796.16;4884140;28;100152;-88
2022/07/26 08:40:37;;;;;;;12.25;9.15;;;;;;;25.62;47.86;99845.22;4899343;28;98567;-88
2022/07/26 08:43:02;;;;;;;9.75;8.20;;;;;;;25.27;48.28;99809.44;4884398;28;97061;-87
2022/07/26 08:45:30;;;;;;;10.38;8.20;;;;;;;25.04;49.16;99808.25;4926026;28;96865;-88
2022/07/26 08:47:57;;;;;;;8.75;7.93;;;;;;;25.07;49.25;99834.78;4887613;28;100545;-89
2022/07/26 08:50:24;;;;;;;10.02;8.65;;;;;;;24.92;49.08;99817.59;4899968;28;97501;-88
2022/07/26 08:52:51;;;;;;;10.45;8.63;;;;;;;24.76;49.27;99796.84;4899131;28;97389;-87
2022/07/26 08:55:18;;;;;;;9.60;8.80;;;;;;;25.25;48.86;99810.63;4895628;28;96877;-87
2022/07/26 08:57:44;;;;;;;10.02;9.13;;;;;;;25.17;49.04;99822.16;4892580;28;98579;-89
2022/07/26 09:00:30;;;;;;;9.43;8.63;;;;;;;25.22;48.81;99833.28;4880573;28;101305;-88
2022/07/26 09:02:58;;;;;;;10.38;9.43;;;;;;;24.84;48.44;99799.56;4878695;28;96968;-89
2022/07/26 09:05:29;;;;;;;10.02;9.13;;;;;;;24.73;48.40;99808.72;4897371;28;97381;-88
2022/07/26 09:07:55;;;;;;;10.13;9.13;;;;;;;24.99;48.63;99846.34;4911092;28;97832;-87
2022/07/26 09:10:21;;;;;;;10.20;8.93;;;;;;;24.92;48.56;99839.06;4916779;28;98452;-87
2022/07/26 09:12:55;;;;;;;11.38;9.25;;;;;;;25.01;48.47;99854.22;4903114;28;97118;-89
2022/07/26 09:15:23;;;;;;;15.32;9.48;;;;;;;25.01;48.64;99808.59;4920223;28;96796;-89
2022/07/26 09:17:53;;;;;;;9.27;8.48;;;;;;;25.14;48.22;99827.00;4881782;28;101465;-88
2022/07/26 09:20:24;;;;;;;9.68;9.00;;;;;;;25.15;47.82;99852.84;4900481;28;100265;-88
2022/07/26 09:22:57;;;;;;;9.40;8.70;;;;;;;25.34;47.99;99881.31;4916877;28;97066;-88
2022/07/26 09:25:27;;;;;;;8.63;7.90;;;;;;;25.19;47.77;99859.56;4920026;28;97637;-87
2022/07/26 09:27:53;;;;;;;9.15;8.25;;;;;;;24.96;47.60;99835.91;4895917;28;98565;-87
2022/07/26 09:30:19;;;;;;;9.80;8.98;;;;;;;25.03;47.30;99839.66;4908921;28;100722;-89
2022/07/26 09:32:59;;;;;;;9.65;8.70;;;;;;;25.12;47.01;99845.06;4881426;28;97772;-87
2022/07/26 09:35:26;;;;;;;8.85;8.13;;;;;;;25.05;46.83;99845.72;4898183;28;97707;-88
2022/07/26 09:37:51;;;;;;;8.55;7.75;;;;;;;25.25;46.98;99869.72;4897606;28;101178;-89
2022/07/26 09:40:18;;;;;;;8.68;7.95;;;;;;;25.29;47.03;99857.66;4898530;28;98623;-89
2022/07/26 09:42:57;;;;;;;8.77;7.97;;;;;;;25.47;46.61;99861.09;4881972;28;97107;-93
2022/07/26 09:45:22;;;;;;;8.63;7.78;;;;;;;25.61;46.50;99862.34;4909478;28;96871;-86
2022/07/26 09:47:48;;;;;;;11.25;7.80;;;;;;;25.67;46.29;99872.47;4916253;28;98684;-86
2022/07/26 09:50:18;;;;;;;9.70;8.35;;;;;;;25.53;46.15;99878.44;4897323;28;101793;-85
2022/07/26 09:53:07;;;;;;;8.32;7.65;;;;;;;25.48;45.56;99880.75;4881859;28;96879;-85
2022/07/26 09:55:35;;;;;;;10.25;8.30;;;;;;;25.44;45.83;99887.44;4898344;28;96836;-84
2022/07/26 09:58:02;;;;;;;9.23;8.48;;;;;;;25.53;45.61;99884.66;4913858;28;98691;-85
2022/07/26 10:00:32;;;;;;;9.20;8.40;;;;;;;25.28;44.54;99875.59;4905861;28;101919;-87
2022/07/26 10:02:58;;;;;;;10.95;7.70;;;;;;;25.34;44.17;99897.44;4894612;28;97139;-85
2022/07/26 10:05:24;;;;;;;8.20;7.60;;;;;;;25.28;43.76;99894.41;4885365;28;97284;-85
2022/07/26 10:07:50;;;;;;;7.93;7.30;;;;;;;25.41;43.94;99896.66;4876480;28;100220;-84
2022/07/26 10:10:21;;;;;;;8.38;7.78;;;;;;;25.42;43.91;99892.13;4897566;28;101164;-85
2022/07/26 10:12:49;;;;;;;8.43;7.78;;;;;;;25.73;44.05;99889.78;4890502;28;96774;-85
2022/07/26 10:15:38;;;;;;;7.95;7.15;;;;;;;25.86;43.31;99898.31;4890826;28;97370;-85
2022/07/26 10:18:07;;;;;;;8.45;7.70;;;;;;;25.60;43.60;99894.75;4893458;28;101517;-85
2022/07/26 10:20:41;;;;;;;8.48;7.60;;;;;;;25.60;43.79;99898.31;4895596;28;98517;-84
2022/07/26 10:23:33;;;;;;;8.73;8.10;;;;;;;25.60;43.97;99900.13;4912984;28;96918;-85
2022/07/26 10:25:59;;;;;;;8.50;7.20;;;;;;;25.62;43.88;99885.53;4903057;28;97125;-91
2022/07/26 10:28:27;;;;;;;10.43;8.13;;;;;;;25.71;43.73;99887.28;4884340;28;100967;-90
2022/07/26 10:31:25;;;;;;;8.43;7.63;;;;;;;25.65;43.76;99895.97;4902590;28;101229;-91
2022/07/26 10:33:53;;;;;;;7.97;7.28;;;;;;;25.72;43.39;99891.66;4906264;28;97006;-92
2022/07/26 10:36:25;;;;;;;8.38;7.57;;;;;;;25.68;43.55;99876.00;4907177;28;96830;-93
2022/07/26 10:39:21;;;;;;;8.05;7.30;;;;;;;25.58;43.48;99894.09;4905961;28;101264;-94
2022/07/26 10:41:57;;;;;;;10.13;6.72;;;;;;;25.68;43.65;99889.44;4882898;28;100811;-94
2022/07/26 10:44:38;;;;;;;8.13;7.43;;;;;;;25.53;43.47;99884.66;4910963;28;97362;-92
2022/07/26 10:47:06;;;;;;;7.75;7.15;;;;;;;25.53;43.41;99867.69;4899379;28;97393;-92
2022/07/26 10:49:51;;;;;;;9.10;7.18;;;;;;;25.89;43.41;99889.03;4907487;28;100135;-91
2022/07/26 10:52:19;;;;;;;8.23;7.53;;;;;;;25.66;43.54;99880.72;4904673;28;100630;-93
2022/07/26 10:55:00;;;;;;;8.60;7.82;;;;;;;25.89;43.24;99887.22;4898142;28;97262;-91
2022/07/26 10:57:36;;;;;;;8.52;7.78;;;;;;;26.15;42.92;99875.53;4905608;28;96955;-92
2022/07/26 11:00:16;;;;;;;7.78;7.10;;;;;;;26.13;42.92;99878.41;4914663;28;101313;-94
2022/07/26 11:02:45;;;;;;;8.38;7.38;;;;;;;26.33;42.89;99881.66;4898954;28;100086;-86
2022/07/26 11:05:16;;;;;;;7.25;6.60;;;;;;;26.36;42.55;99884.00;4899588;28;96804;-85
2022/07/26 11:07:48;;;;;;;8.13;7.35;;;;;;;26.34;41.96;99890.56;4913032;28;97357;-86
2022/07/26 11:10:13;;;;;;;7.93;7.22;;;;;;;26.36;42.34;99894.78;4903455;28;99665;-84
2022/07/26 11:12:39;;;;;;;7.35;6.85;;;;;;;26.22;42.08;99879.28;4900811;28;101229;-83
2022/07/26 11:15:16;;;;;;;8.85;8.05;;;;;;;26.37;42.46;99890.22;4894842;28;97367;-84
2022/07/26 11:17:41;;;;;;;8.43;7.40;;;;;;;26.33;42.48;99896.97;4884345;28;96975;-84
2022/07/26 11:20:07;;;;;;;7.38;6.78;;;;;;;26.36;42.43;99894.78;4899352;28;101331;-83
2022/07/26 11:22:34;;;;;;;7.65;6.93;;;;;;;26.60;42.51;99893.16;4899154;28;100214;-85
2022/07/26 11:25:00;;;;;;;7.75;6.85;;;;;;;26.47;42.29;99901.72;4895571;28;97238;-83